createdAt,value
2019-01-26T00:00:07.128Z,8.37
2019-01-26T00:00:38.400Z,8.34
2019-01-26T00:01:09.627Z,8.37
2019-01-26T00:01:40.836Z,8.37
2019-01-26T00:02:12.151Z,8.33
2019-01-26T00:02:43.367Z,8.31
2019-01-26T00:03:14.619Z,8.30
2019-01-26T00:03:45.848Z,8.28
2019-01-26T00:04:17.078Z,8.33
2019-01-26T00:04:48.331Z,8.34
2019-01-26T00:05:19.581Z,8.37
2019-01-26T00:05:50.812Z,8.33
2019-01-26T00:06:22.034Z,8.33
2019-01-26T00:06:53.255Z,8.33
2019-01-26T00:07:24.472Z,8.27
2019-01-26T00:07:55.686Z,8.28
2019-01-26T00:08:26.922Z,8.30
2019-01-26T00:08:58.160Z,8.34
2019-01-26T00:09:29.372Z,8.36
2019-01-26T00:10:00.687Z,8.38
2019-01-26T00:10:31.916Z,8.37
2019-01-26T00:11:03.143Z,8.44
2019-01-26T00:11:34.391Z,8.54
2019-01-26T00:12:05.610Z,8.56
2019-01-26T00:12:36.815Z,8.57
2019-01-26T00:13:08.055Z,8.56
2019-01-26T00:13:39.271Z,8.55
2019-01-26T00:14:10.582Z,8.47
2019-01-26T00:14:41.816Z,8.47
2019-01-26T00:15:13.042Z,8.48
2019-01-26T00:15:44.326Z,8.51
2019-01-26T00:16:20.998Z,8.50
2019-01-26T00:16:48.504Z,8.55
2019-01-26T00:17:19.725Z,8.58
2019-01-26T00:17:51.028Z,8.53
2019-01-26T00:18:22.255Z,8.50
2019-01-26T00:18:53.492Z,8.48
2019-01-26T00:19:24.774Z,8.49
2019-01-26T00:19:55.978Z,8.49
2019-01-26T00:20:27.194Z,8.51
2019-01-26T00:20:58.406Z,8.55
2019-01-26T00:21:29.637Z,8.51
2019-01-26T00:22:00.856Z,8.51
2019-01-26T00:22:32.076Z,8.50
2019-01-26T00:23:03.340Z,8.49
2019-01-26T00:23:34.598Z,8.47
2019-01-26T00:24:06.063Z,8.51
2019-01-26T00:24:37.297Z,8.49
2019-01-26T00:25:08.517Z,8.50
2019-01-26T00:25:39.742Z,8.44
2019-01-26T00:26:10.983Z,8.46
2019-01-26T00:26:42.203Z,8.32
2019-01-26T00:27:13.455Z,8.31
2019-01-26T00:27:44.691Z,8.35
2019-01-26T00:28:15.878Z,8.34
2019-01-26T00:28:47.093Z,8.38
2019-01-26T00:29:18.304Z,8.32
2019-01-26T00:29:49.514Z,8.30
2019-01-26T00:30:20.825Z,8.35
2019-01-26T00:30:52.060Z,8.39
2019-01-26T00:31:23.281Z,8.27
2019-01-26T00:31:54.490Z,8.36
2019-01-26T00:32:25.700Z,8.44
2019-01-26T00:32:56.962Z,8.48
2019-01-26T00:33:28.173Z,8.51
2019-01-26T00:33:59.385Z,8.53
2019-01-26T00:34:30.682Z,8.56
2019-01-26T00:35:01.889Z,8.57
2019-01-26T00:35:33.137Z,8.59
2019-01-26T00:36:04.344Z,8.65
2019-01-26T00:36:35.579Z,8.66
2019-01-26T00:37:06.808Z,8.67
2019-01-26T00:37:38.032Z,8.76
2019-01-26T00:38:09.317Z,8.78
2019-01-26T00:38:40.516Z,8.91
2019-01-26T00:39:11.729Z,8.95
2019-01-26T00:39:43.007Z,8.96
2019-01-26T00:40:14.242Z,8.93
2019-01-26T00:40:45.522Z,8.83
2019-01-26T00:41:16.734Z,8.77
2019-01-26T00:41:47.957Z,8.74
2019-01-26T00:42:19.412Z,8.72
2019-01-26T00:42:50.625Z,8.66
2019-01-26T00:43:21.892Z,8.65
2019-01-26T00:43:53.108Z,8.66
2019-01-26T00:44:24.343Z,8.62
2019-01-26T00:44:55.566Z,8.63
2019-01-26T00:45:26.813Z,8.60
2019-01-26T00:45:58.035Z,8.61
2019-01-26T00:46:29.291Z,8.62
2019-01-26T00:47:00.522Z,8.58
2019-01-26T00:47:31.732Z,8.57
2019-01-26T00:48:02.949Z,8.58
2019-01-26T00:48:34.167Z,8.57
2019-01-26T00:49:05.374Z,8.58
2019-01-26T00:49:36.608Z,8.52
2019-01-26T00:50:07.822Z,8.48
2019-01-26T00:50:39.034Z,8.48
2019-01-26T00:51:10.242Z,8.48
2019-01-26T00:51:41.514Z,8.46
2019-01-26T00:52:12.778Z,8.45
2019-01-26T00:52:43.998Z,8.43
2019-01-26T00:53:15.224Z,8.39
2019-01-26T00:53:46.449Z,8.42
2019-01-26T00:54:17.664Z,8.44
2019-01-26T00:54:48.923Z,8.43
2019-01-26T00:55:20.148Z,8.45
2019-01-26T00:55:51.373Z,8.48
2019-01-26T00:56:22.595Z,8.48
2019-01-26T00:56:53.877Z,8.49
2019-01-26T00:57:25.090Z,8.47
2019-01-26T00:57:56.310Z,8.45
2019-01-26T00:58:27.516Z,8.43
2019-01-26T00:58:58.807Z,8.43
2019-01-26T00:59:30.141Z,8.40
2019-01-26T01:00:01.438Z,8.34
2019-01-26T01:00:32.685Z,8.37
2019-01-26T01:01:03.922Z,8.39
2019-01-26T01:01:35.150Z,8.39
2019-01-26T01:02:06.372Z,8.40
2019-01-26T01:02:37.638Z,8.35
2019-01-26T01:03:08.860Z,8.37
2019-01-26T01:03:40.113Z,8.39
2019-01-26T01:04:11.397Z,8.38
2019-01-26T01:04:42.611Z,8.37
2019-01-26T01:05:13.838Z,8.36
2019-01-26T01:05:45.073Z,8.36
2019-01-26T01:06:16.385Z,8.35
2019-01-26T01:06:47.648Z,8.35
2019-01-26T01:07:18.870Z,8.30
2019-01-26T01:07:50.130Z,8.27
2019-01-26T01:08:21.382Z,8.27
2019-01-26T01:08:52.615Z,8.28
2019-01-26T01:09:23.820Z,8.28
2019-01-26T01:09:55.049Z,8.25
2019-01-26T01:10:26.286Z,8.23
2019-01-26T01:10:57.559Z,8.23
2019-01-26T01:11:28.771Z,8.24
2019-01-26T01:12:00.063Z,8.24
2019-01-26T01:12:31.324Z,8.30
2019-01-26T01:13:02.590Z,8.34
2019-01-26T01:13:33.803Z,8.35
2019-01-26T01:14:05.012Z,8.34
2019-01-26T01:14:36.246Z,8.37
2019-01-26T01:15:07.463Z,8.40
2019-01-26T01:15:38.675Z,8.41
2019-01-26T01:16:09.911Z,8.43
2019-01-26T01:16:41.123Z,8.44
2019-01-26T01:17:12.356Z,8.44
2019-01-26T01:17:43.573Z,8.46
2019-01-26T01:18:14.782Z,8.48
2019-01-26T01:18:45.947Z,8.48
2019-01-26T01:19:17.149Z,8.49
2019-01-26T01:19:48.455Z,8.47
2019-01-26T01:20:19.690Z,8.46
2019-01-26T01:20:50.959Z,8.40
2019-01-26T01:21:22.212Z,8.37
2019-01-26T01:21:53.454Z,8.36
2019-01-26T01:22:24.729Z,8.35
2019-01-26T01:22:55.954Z,8.34
2019-01-26T01:23:27.166Z,8.30
2019-01-26T01:23:58.456Z,8.21
2019-01-26T01:24:29.685Z,8.21
2019-01-26T01:25:00.950Z,8.14
2019-01-26T01:25:32.185Z,8.19
2019-01-26T01:26:03.401Z,8.19
2019-01-26T01:26:34.615Z,8.18
2019-01-26T01:27:05.835Z,8.22
2019-01-26T01:27:37.088Z,8.19
2019-01-26T01:28:08.313Z,8.19
2019-01-26T01:28:39.520Z,8.18
2019-01-26T01:29:10.784Z,8.19
2019-01-26T01:29:42.061Z,8.18
2019-01-26T01:30:13.290Z,8.16
2019-01-26T01:30:44.496Z,8.14
2019-01-26T01:31:15.713Z,8.13
2019-01-26T01:31:46.946Z,8.13
2019-01-26T01:32:18.169Z,8.14
2019-01-26T01:32:49.431Z,8.17
2019-01-26T01:33:20.672Z,8.19
2019-01-26T01:33:51.873Z,8.20
2019-01-26T01:34:23.899Z,8.21
2019-01-26T01:34:55.182Z,8.24
2019-01-26T01:35:26.438Z,8.26
2019-01-26T01:35:57.694Z,8.27
2019-01-26T01:36:28.942Z,8.26
2019-01-26T01:37:00.231Z,8.24
2019-01-26T01:37:31.459Z,8.21
2019-01-26T01:38:02.695Z,8.21
2019-01-26T01:38:33.905Z,8.21
2019-01-26T01:39:05.124Z,8.22
2019-01-26T01:39:36.336Z,8.22
2019-01-26T01:40:07.536Z,8.28
2019-01-26T01:40:40.214Z,8.32
2019-01-26T01:41:11.749Z,8.34
2019-01-26T01:41:42.971Z,8.35
2019-01-26T01:42:14.207Z,8.28
2019-01-26T01:42:45.467Z,8.30
2019-01-26T01:43:16.683Z,8.29
2019-01-26T01:43:47.888Z,8.28
2019-01-26T01:44:19.113Z,8.28
2019-01-26T01:44:50.383Z,8.27
2019-01-26T01:45:21.601Z,8.30
2019-01-26T01:45:52.813Z,8.30
2019-01-26T01:46:24.071Z,8.34
2019-01-26T01:46:55.280Z,8.36
2019-01-26T01:47:26.510Z,8.33
2019-01-26T01:47:57.736Z,8.32
2019-01-26T01:48:29.010Z,8.33
2019-01-26T01:49:00.338Z,8.33
2019-01-26T01:49:31.532Z,8.34
2019-01-26T01:50:02.766Z,8.33
2019-01-26T01:50:33.975Z,8.27
2019-01-26T01:51:05.234Z,8.28
2019-01-26T01:51:36.494Z,8.30
2019-01-26T01:52:07.695Z,8.26
2019-01-26T01:52:38.953Z,8.29
2019-01-26T01:53:12.513Z,8.29
2019-01-26T01:53:43.774Z,8.31
2019-01-26T01:54:14.980Z,8.34
2019-01-26T01:54:46.198Z,8.39
2019-01-26T01:55:17.462Z,8.46
2019-01-26T01:55:49.694Z,8.51
2019-01-26T01:56:20.907Z,8.50
2019-01-26T01:56:52.120Z,8.49
2019-01-26T01:57:23.332Z,8.49
2019-01-26T01:57:54.545Z,8.51
2019-01-26T01:58:25.778Z,8.52
2019-01-26T01:58:57.066Z,8.50
2019-01-26T01:59:28.275Z,8.44
2019-01-26T01:59:59.514Z,8.38
2019-01-26T02:00:30.800Z,8.38
2019-01-26T02:01:02.042Z,8.36
2019-01-26T02:01:33.278Z,8.37
2019-01-26T02:02:04.494Z,8.39
2019-01-26T02:02:35.702Z,8.37
2019-01-26T02:03:06.910Z,8.33
2019-01-26T02:03:38.171Z,8.30
2019-01-26T02:04:09.394Z,8.28
2019-01-26T02:04:40.639Z,8.30
2019-01-26T02:05:11.875Z,8.33
2019-01-26T02:05:43.139Z,8.37
2019-01-26T02:06:14.410Z,8.41
2019-01-26T02:06:45.625Z,8.42
2019-01-26T02:07:16.882Z,8.33
2019-01-26T02:07:48.116Z,8.33
2019-01-26T02:08:19.324Z,8.32
2019-01-26T02:08:50.574Z,8.38
2019-01-26T02:09:21.816Z,8.39
2019-01-26T02:09:53.025Z,8.39
2019-01-26T02:10:24.266Z,8.40
2019-01-26T02:10:55.471Z,8.43
2019-01-26T02:11:26.696Z,8.47
2019-01-26T02:11:57.920Z,8.55
2019-01-26T02:12:29.190Z,8.51
2019-01-26T02:13:00.396Z,8.52
2019-01-26T02:13:31.618Z,8.46
2019-01-26T02:14:02.868Z,8.47
2019-01-26T02:14:34.083Z,8.51
2019-01-26T02:15:05.303Z,8.53
2019-01-26T02:15:36.535Z,8.54
2019-01-26T02:16:07.739Z,8.54
2019-01-26T02:16:39.009Z,8.56
2019-01-26T02:17:10.223Z,8.56
2019-01-26T02:17:41.481Z,8.54
2019-01-26T02:18:12.694Z,8.54
2019-01-26T02:18:43.927Z,8.57
2019-01-26T02:19:15.111Z,8.57
2019-01-26T02:19:46.328Z,8.57
2019-01-26T02:20:17.557Z,8.62
2019-01-26T02:20:48.790Z,8.64
2019-01-26T02:21:20.368Z,8.64
2019-01-26T02:21:51.583Z,8.63
2019-01-26T02:22:22.793Z,8.63
2019-01-26T02:22:54.069Z,8.60
2019-01-26T02:23:25.277Z,7.85
2019-01-26T02:23:56.508Z,8.58
2019-01-26T02:24:27.721Z,8.58
2019-01-26T02:24:58.995Z,8.59
2019-01-26T02:25:30.206Z,8.62
2019-01-26T02:26:01.484Z,8.63
2019-01-26T02:26:32.743Z,8.64
2019-01-26T02:27:03.956Z,8.65
2019-01-26T02:27:35.171Z,8.66
2019-01-26T02:28:06.419Z,8.69
2019-01-26T02:28:37.680Z,8.68
2019-01-26T02:29:08.916Z,8.70
2019-01-26T02:29:40.145Z,8.73
2019-01-26T02:30:11.360Z,8.70
2019-01-26T02:30:42.581Z,8.75
2019-01-26T02:31:13.842Z,8.78
2019-01-26T02:31:45.093Z,8.76
2019-01-26T02:32:16.289Z,8.76
2019-01-26T02:32:47.544Z,8.74
2019-01-26T02:33:18.752Z,8.71
2019-01-26T02:33:49.970Z,8.68
2019-01-26T02:34:21.204Z,8.64
2019-01-26T02:34:52.472Z,8.61
2019-01-26T02:35:23.711Z,8.62
2019-01-26T02:35:54.927Z,8.64
2019-01-26T02:36:26.156Z,8.66
2019-01-26T02:36:57.390Z,8.66
2019-01-26T02:37:29.727Z,8.65
2019-01-26T02:38:00.950Z,7.62
2019-01-26T02:38:32.168Z,8.67
2019-01-26T02:39:03.383Z,8.69
2019-01-26T02:39:34.610Z,8.69
2019-01-26T02:40:05.881Z,8.72
2019-01-26T02:40:37.090Z,8.70
2019-01-26T02:41:08.318Z,8.73
2019-01-26T02:41:39.581Z,8.74
2019-01-26T02:42:10.786Z,8.75
2019-01-26T02:42:42.045Z,8.76
2019-01-26T02:43:13.280Z,8.72
2019-01-26T02:43:44.507Z,8.68
2019-01-26T02:44:15.796Z,8.69
2019-01-26T02:44:47.002Z,8.68
2019-01-26T02:45:18.225Z,8.77
2019-01-26T02:45:49.468Z,8.78
2019-01-26T02:46:20.686Z,8.81
2019-01-26T02:46:57.893Z,8.82
2019-01-26T02:47:25.821Z,8.76
2019-01-26T02:47:57.053Z,8.74
2019-01-26T02:48:28.268Z,8.72
2019-01-26T02:48:59.484Z,8.71
2019-01-26T02:49:30.707Z,8.72
2019-01-26T02:50:01.956Z,8.72
2019-01-26T02:50:33.141Z,8.70
2019-01-26T02:51:04.382Z,8.69
2019-01-26T02:51:35.591Z,8.70
2019-01-26T02:52:06.876Z,8.63
2019-01-26T02:52:38.092Z,8.57
2019-01-26T02:53:09.346Z,8.56
2019-01-26T02:53:40.549Z,8.59
2019-01-26T02:54:11.754Z,8.63
2019-01-26T02:54:42.967Z,8.64
2019-01-26T02:55:14.202Z,8.73
2019-01-26T02:55:45.446Z,8.74
2019-01-26T02:56:16.743Z,8.74
2019-01-26T02:56:47.968Z,8.72
2019-01-26T02:57:19.254Z,8.70
2019-01-26T02:57:50.516Z,8.71
2019-01-26T02:58:21.750Z,8.68
2019-01-26T02:58:52.980Z,7.36
2019-01-26T02:59:24.191Z,8.62
2019-01-26T02:59:55.423Z,8.59
2019-01-26T03:00:26.644Z,8.56
2019-01-26T03:00:57.857Z,8.56
2019-01-26T03:01:29.103Z,8.53
2019-01-26T03:02:00.332Z,8.46
2019-01-26T03:02:31.592Z,8.43
2019-01-26T03:03:02.805Z,8.39
2019-01-26T03:03:34.030Z,8.37
2019-01-26T03:04:05.297Z,8.32
2019-01-26T03:04:36.539Z,8.27
2019-01-26T03:05:07.781Z,8.36
2019-01-26T03:05:38.993Z,8.40
2019-01-26T03:06:12.180Z,8.40
2019-01-26T03:06:43.499Z,8.39
2019-01-26T03:07:14.730Z,8.40
2019-01-26T03:07:45.938Z,8.43
2019-01-26T03:08:17.235Z,8.45
2019-01-26T03:08:48.470Z,8.43
2019-01-26T03:09:19.673Z,8.35
2019-01-26T03:09:50.900Z,8.33
2019-01-26T03:10:22.122Z,8.34
2019-01-26T03:10:53.335Z,8.35
2019-01-26T03:11:24.567Z,8.36
2019-01-26T03:11:55.786Z,8.34
2019-01-26T03:12:27.022Z,8.37
2019-01-26T03:12:58.285Z,8.30
2019-01-26T03:13:29.523Z,8.30
2019-01-26T03:14:00.738Z,8.32
2019-01-26T03:14:31.948Z,8.29
2019-01-26T03:15:03.204Z,8.27
2019-01-26T03:15:35.426Z,8.26
2019-01-26T03:16:06.717Z,8.29
2019-01-26T03:16:37.969Z,8.33
2019-01-26T03:17:09.318Z,8.38
2019-01-26T03:17:40.626Z,8.38
2019-01-26T03:18:11.860Z,8.34
2019-01-26T03:18:43.075Z,8.35
2019-01-26T03:19:14.305Z,8.37
2019-01-26T03:19:45.531Z,8.40
2019-01-26T03:20:16.793Z,8.41
2019-01-26T03:20:48.008Z,8.44
2019-01-26T03:21:19.256Z,8.46
2019-01-26T03:21:50.475Z,8.45
2019-01-26T03:22:21.762Z,8.48
2019-01-26T03:22:53.003Z,8.51
2019-01-26T03:23:24.268Z,8.52
2019-01-26T03:23:55.533Z,8.51
2019-01-26T03:24:26.797Z,8.49
2019-01-26T03:24:58.028Z,8.52
2019-01-26T03:25:29.245Z,8.54
2019-01-26T03:26:00.477Z,8.58
2019-01-26T03:26:31.744Z,8.50
2019-01-26T03:27:02.994Z,8.42
2019-01-26T03:27:34.231Z,8.45
2019-01-26T03:28:05.451Z,8.39
2019-01-26T03:28:36.681Z,8.41
2019-01-26T03:29:07.910Z,8.43
2019-01-26T03:29:39.212Z,8.43
2019-01-26T03:30:10.416Z,8.43
2019-01-26T03:30:41.654Z,8.40
2019-01-26T03:31:12.890Z,8.38
2019-01-26T03:31:44.139Z,8.35
2019-01-26T03:32:15.399Z,8.35
2019-01-26T03:32:46.614Z,8.31
2019-01-26T03:33:17.881Z,8.33
2019-01-26T03:33:49.108Z,8.33
2019-01-26T03:34:20.365Z,8.30
2019-01-26T03:34:51.594Z,8.29
2019-01-26T03:35:22.819Z,8.28
2019-01-26T03:35:54.051Z,8.26
2019-01-26T03:36:25.313Z,8.27
2019-01-26T03:36:56.553Z,8.28
2019-01-26T03:37:27.790Z,8.28
2019-01-26T03:37:59.084Z,8.27
2019-01-26T03:38:30.350Z,8.30
2019-01-26T03:39:01.529Z,8.23
2019-01-26T03:39:32.769Z,8.24
2019-01-26T03:40:03.982Z,8.24
2019-01-26T03:40:35.220Z,8.24
2019-01-26T03:41:06.432Z,8.23
2019-01-26T03:41:37.676Z,8.24
2019-01-26T03:42:08.927Z,8.24
2019-01-26T03:42:40.161Z,8.22
2019-01-26T03:43:13.659Z,8.22
2019-01-26T03:43:44.865Z,8.24
2019-01-26T03:44:16.098Z,8.26
2019-01-26T03:44:47.316Z,8.29
2019-01-26T03:45:18.535Z,8.31
2019-01-26T03:45:49.743Z,8.35
2019-01-26T03:46:23.146Z,8.31
2019-01-26T03:46:54.363Z,8.28
2019-01-26T03:47:25.571Z,8.30
2019-01-26T03:47:57.025Z,8.34
2019-01-26T03:48:28.247Z,8.33
2019-01-26T03:48:59.482Z,8.30
2019-01-26T03:49:30.696Z,8.33
2019-01-26T03:50:01.914Z,8.32
2019-01-26T03:50:33.180Z,8.27
2019-01-26T03:51:04.459Z,8.29
2019-01-26T03:51:35.668Z,8.28
2019-01-26T03:52:06.914Z,8.29
2019-01-26T03:52:38.120Z,8.32
2019-01-26T03:53:09.492Z,8.34
2019-01-26T03:53:40.707Z,8.33
2019-01-26T03:54:11.932Z,8.34
2019-01-26T03:54:43.191Z,8.39
2019-01-26T03:55:14.393Z,8.45
2019-01-26T03:55:45.631Z,8.48
2019-01-26T03:56:16.910Z,8.50
2019-01-26T03:56:48.175Z,8.50
2019-01-26T03:57:20.310Z,8.49
2019-01-26T03:57:51.745Z,8.38
2019-01-26T03:58:23.059Z,8.38
2019-01-26T03:58:54.273Z,8.38
2019-01-26T03:59:25.561Z,8.42
2019-01-26T03:59:56.772Z,8.45
2019-01-26T04:00:28.014Z,8.40
2019-01-26T04:00:59.256Z,8.40
2019-01-26T04:01:30.471Z,8.42
2019-01-26T04:02:01.703Z,8.45
2019-01-26T04:02:32.933Z,8.43
2019-01-26T04:03:04.147Z,8.42
2019-01-26T04:03:35.426Z,8.42
2019-01-26T04:04:06.672Z,8.39
2019-01-26T04:04:37.909Z,8.37
2019-01-26T04:05:09.123Z,8.39
2019-01-26T04:05:40.330Z,8.37
2019-01-26T04:06:11.572Z,8.35
2019-01-26T04:06:42.778Z,8.32
2019-01-26T04:07:13.998Z,8.34
2019-01-26T04:07:45.212Z,8.37
2019-01-26T04:08:16.464Z,8.39
2019-01-26T04:08:47.709Z,8.39
2019-01-26T04:09:18.922Z,8.33
2019-01-26T04:09:50.203Z,8.36
2019-01-26T04:10:21.443Z,8.35
2019-01-26T04:10:52.656Z,8.32
2019-01-26T04:11:23.870Z,8.32
2019-01-26T04:11:56.112Z,8.30
2019-01-26T04:12:27.344Z,8.30
2019-01-26T04:12:58.627Z,8.30
2019-01-26T04:13:29.840Z,8.33
2019-01-26T04:14:01.056Z,8.35
2019-01-26T04:14:32.330Z,8.37
2019-01-26T04:15:03.572Z,8.37
2019-01-26T04:15:34.820Z,8.36
2019-01-26T04:16:06.050Z,8.34
2019-01-26T04:16:37.279Z,8.34
2019-01-26T04:17:08.497Z,8.35
2019-01-26T04:17:39.720Z,8.38
2019-01-26T04:18:10.971Z,8.41
2019-01-26T04:18:42.188Z,8.43
2019-01-26T04:19:13.422Z,8.47
2019-01-26T04:19:44.641Z,8.55
2019-01-26T04:20:15.910Z,8.58
2019-01-26T04:20:47.159Z,8.65
2019-01-26T04:21:18.436Z,8.67
2019-01-26T04:21:49.647Z,8.66
2019-01-26T04:22:20.910Z,8.67
2019-01-26T04:22:52.195Z,8.65
2019-01-26T04:23:23.410Z,8.58
2019-01-26T04:23:54.674Z,8.57
2019-01-26T04:24:25.922Z,8.54
2019-01-26T04:24:57.199Z,8.58
2019-01-26T04:25:28.421Z,8.60
2019-01-26T04:25:59.642Z,8.61
2019-01-26T04:26:30.878Z,8.62
2019-01-26T04:27:02.132Z,8.63
2019-01-26T04:27:33.396Z,8.65
2019-01-26T04:28:04.608Z,8.67
2019-01-26T04:28:35.847Z,8.68
2019-01-26T04:29:07.085Z,8.65
2019-01-26T04:29:38.318Z,8.67
2019-01-26T04:30:09.556Z,8.66
2019-01-26T04:30:40.846Z,8.65
2019-01-26T04:31:12.072Z,8.65
2019-01-26T04:31:43.381Z,8.63
2019-01-26T04:32:14.616Z,8.62
2019-01-26T04:32:46.274Z,8.61
2019-01-26T04:33:17.528Z,8.62
2019-01-26T04:33:48.806Z,8.63
2019-01-26T04:34:20.073Z,8.62
2019-01-26T04:34:51.281Z,8.62
2019-01-26T04:35:22.506Z,8.63
2019-01-26T04:35:53.759Z,8.62
2019-01-26T04:36:25.008Z,8.59
2019-01-26T04:36:56.287Z,8.60
2019-01-26T04:37:27.545Z,8.63
2019-01-26T04:37:58.795Z,8.64
2019-01-26T04:38:30.025Z,8.65
2019-01-26T04:39:01.234Z,8.65
2019-01-26T04:39:32.472Z,8.62
2019-01-26T04:40:03.686Z,7.25
2019-01-26T04:40:34.913Z,8.64
2019-01-26T04:41:06.173Z,8.65
2019-01-26T04:41:37.393Z,8.63
2019-01-26T04:42:08.654Z,8.64
2019-01-26T04:42:39.870Z,8.64
2019-01-26T04:43:11.079Z,8.64
2019-01-26T04:43:42.301Z,8.62
2019-01-26T04:44:13.536Z,8.60
2019-01-26T04:44:44.750Z,8.59
2019-01-26T04:45:16.007Z,8.62
2019-01-26T04:45:47.275Z,8.66
2019-01-26T04:46:18.537Z,8.67
2019-01-26T04:46:49.795Z,8.69
2019-01-26T04:47:21.028Z,8.70
2019-01-26T04:47:52.268Z,8.72
2019-01-26T04:48:23.477Z,8.73
2019-01-26T04:48:54.695Z,8.72
2019-01-26T04:49:25.964Z,8.73
2019-01-26T04:49:57.264Z,8.70
2019-01-26T04:50:28.506Z,8.70
2019-01-26T04:50:59.745Z,8.78
2019-01-26T04:51:31.004Z,8.82
2019-01-26T04:52:02.237Z,8.86
2019-01-26T04:52:33.453Z,8.80
2019-01-26T04:53:04.715Z,8.76
2019-01-26T04:53:35.925Z,8.72
2019-01-26T04:54:07.201Z,8.67
2019-01-26T04:54:38.434Z,8.64
2019-01-26T04:55:09.687Z,8.63
2019-01-26T04:55:40.917Z,8.58
2019-01-26T04:56:12.148Z,8.59
2019-01-26T04:56:43.353Z,8.60
2019-01-26T04:57:14.591Z,8.63
2019-01-26T04:57:45.823Z,8.67
2019-01-26T04:58:17.040Z,8.69
2019-01-26T04:58:48.309Z,8.67
2019-01-26T04:59:19.537Z,8.65
2019-01-26T04:59:50.759Z,8.67
2019-01-26T05:00:22.012Z,8.66
2019-01-26T05:00:53.227Z,8.67
2019-01-26T05:01:24.485Z,8.62
2019-01-26T05:01:55.697Z,8.64
2019-01-26T05:02:26.914Z,8.67
2019-01-26T05:02:58.206Z,8.66
2019-01-26T05:03:29.468Z,8.68
2019-01-26T05:04:00.695Z,8.67
2019-01-26T05:04:31.925Z,8.65
2019-01-26T05:05:03.126Z,8.64
2019-01-26T05:05:34.360Z,8.64
2019-01-26T05:06:05.647Z,8.61
2019-01-26T05:06:36.872Z,8.62
2019-01-26T05:07:08.093Z,8.60
2019-01-26T05:07:39.309Z,8.62
2019-01-26T05:08:10.543Z,8.59
2019-01-26T05:08:41.802Z,8.60
2019-01-26T05:09:13.022Z,8.53
2019-01-26T05:09:44.235Z,8.58
2019-01-26T05:10:15.467Z,8.62
2019-01-26T05:10:46.672Z,8.61
2019-01-26T05:11:17.938Z,8.58
2019-01-26T05:11:49.150Z,8.54
2019-01-26T05:12:20.373Z,8.52
2019-01-26T05:12:51.578Z,8.56
2019-01-26T05:13:22.803Z,8.59
2019-01-26T05:13:54.056Z,8.62
2019-01-26T05:14:25.271Z,8.65
2019-01-26T05:14:56.523Z,8.68
2019-01-26T05:15:27.763Z,8.66
2019-01-26T05:15:59.004Z,8.56
2019-01-26T05:16:30.234Z,8.60
2019-01-26T05:17:01.462Z,8.64
2019-01-26T05:17:39.233Z,8.70
2019-01-26T05:18:06.638Z,8.74
2019-01-26T05:18:37.911Z,8.75
2019-01-26T05:19:09.210Z,8.74
2019-01-26T05:19:40.425Z,8.74
2019-01-26T05:20:11.661Z,8.62
2019-01-26T05:20:42.887Z,8.63
2019-01-26T05:21:14.141Z,8.64
2019-01-26T05:21:45.371Z,8.70
2019-01-26T05:22:16.581Z,8.73
2019-01-26T05:22:47.801Z,8.74
2019-01-26T05:23:19.060Z,8.76
2019-01-26T05:23:50.294Z,8.77
2019-01-26T05:24:21.509Z,8.77
2019-01-26T05:24:52.717Z,8.75
2019-01-26T05:25:23.961Z,8.71
2019-01-26T05:25:55.162Z,8.70
2019-01-26T05:26:26.429Z,8.68
2019-01-26T05:26:57.666Z,8.67
2019-01-26T05:27:28.888Z,8.64
2019-01-26T05:28:00.116Z,8.64
2019-01-26T05:28:31.394Z,8.60
2019-01-26T05:29:02.691Z,8.62
2019-01-26T05:29:33.918Z,8.62
2019-01-26T05:30:05.148Z,8.62
2019-01-26T05:30:36.378Z,8.63
2019-01-26T05:31:07.619Z,8.64
2019-01-26T05:31:38.877Z,8.67
2019-01-26T05:32:10.171Z,8.74
2019-01-26T05:32:41.421Z,8.85
2019-01-26T05:33:12.630Z,9.01
2019-01-26T05:33:43.909Z,9.10
2019-01-26T05:34:15.142Z,9.11
2019-01-26T05:34:46.382Z,9.06
2019-01-26T05:35:17.643Z,9.00
2019-01-26T05:35:48.881Z,8.93
2019-01-26T05:36:20.145Z,8.94
2019-01-26T05:36:51.357Z,8.95
2019-01-26T05:37:22.622Z,8.93
2019-01-26T05:37:53.882Z,8.92
2019-01-26T05:38:25.128Z,8.90
2019-01-26T05:38:56.383Z,8.86
2019-01-26T05:39:27.598Z,8.83
2019-01-26T05:39:58.808Z,8.79
2019-01-26T05:40:30.036Z,8.79
2019-01-26T05:41:01.305Z,8.75
2019-01-26T05:41:32.532Z,8.75
2019-01-26T05:42:03.781Z,8.79
2019-01-26T05:42:35.000Z,8.80
2019-01-26T05:43:06.303Z,8.79
2019-01-26T05:43:37.544Z,8.81
2019-01-26T05:44:08.788Z,8.84
2019-01-26T05:44:40.047Z,8.86
2019-01-26T05:45:11.271Z,8.84
2019-01-26T05:45:42.525Z,8.82
2019-01-26T05:46:13.860Z,8.97
2019-01-26T05:46:45.098Z,9.07
2019-01-26T05:47:16.310Z,9.09
2019-01-26T05:47:49.291Z,9.15
2019-01-26T05:48:20.469Z,9.28
2019-01-26T05:48:51.716Z,9.30
2019-01-26T05:49:22.942Z,9.29
2019-01-26T05:49:54.157Z,9.25
2019-01-26T05:50:25.541Z,9.25
2019-01-26T05:50:56.785Z,9.24
2019-01-26T05:51:28.023Z,9.20
2019-01-26T05:51:59.269Z,9.16
2019-01-26T05:52:30.516Z,9.09
2019-01-26T05:53:01.740Z,9.04
2019-01-26T05:53:33.048Z,8.97
2019-01-26T05:54:04.257Z,8.91
2019-01-26T05:54:35.482Z,8.90
2019-01-26T05:55:06.708Z,8.98
2019-01-26T05:55:37.990Z,8.98
2019-01-26T05:56:09.219Z,9.04
2019-01-26T05:56:40.482Z,9.08
2019-01-26T05:57:11.714Z,9.08
2019-01-26T05:57:42.953Z,9.06
2019-01-26T05:58:14.168Z,9.08
2019-01-26T05:58:45.422Z,9.07
2019-01-26T05:59:16.633Z,9.04
2019-01-26T05:59:47.869Z,9.02
2019-01-26T06:00:19.092Z,9.01
2019-01-26T06:00:50.365Z,8.96
2019-01-26T06:01:21.616Z,8.96
2019-01-26T06:01:52.839Z,8.94
2019-01-26T06:02:24.097Z,8.92
2019-01-26T06:02:55.345Z,8.89
2019-01-26T06:03:26.589Z,8.93
2019-01-26T06:03:57.847Z,8.93
2019-01-26T06:04:29.049Z,8.91
2019-01-26T06:05:00.313Z,8.90
2019-01-26T06:05:31.581Z,8.87
2019-01-26T06:06:02.830Z,8.87
2019-01-26T06:06:34.135Z,8.89
2019-01-26T06:07:05.398Z,8.98
2019-01-26T06:07:36.617Z,9.02
2019-01-26T06:08:07.830Z,9.02
2019-01-26T06:08:39.056Z,9.03
2019-01-26T06:09:10.379Z,9.04
2019-01-26T06:09:41.628Z,9.04
2019-01-26T06:10:12.867Z,9.04
2019-01-26T06:10:44.150Z,8.99
2019-01-26T06:11:15.478Z,8.98
2019-01-26T06:11:46.813Z,8.95
2019-01-26T06:12:18.146Z,8.91
2019-01-26T06:12:49.473Z,8.91
2019-01-26T06:13:20.774Z,8.93
2019-01-26T06:13:52.093Z,8.96
2019-01-26T06:14:23.390Z,8.95
2019-01-26T06:14:54.733Z,8.84
2019-01-26T06:15:26.064Z,8.87
2019-01-26T06:15:57.409Z,8.90
2019-01-26T06:16:30.421Z,9.03
2019-01-26T06:17:01.672Z,9.07
2019-01-26T06:17:33.039Z,9.07
2019-01-26T06:18:04.359Z,7.72
2019-01-26T06:18:35.671Z,9.05
2019-01-26T06:19:07.002Z,9.06
2019-01-26T06:19:38.374Z,9.14
2019-01-26T06:20:09.717Z,9.30
2019-01-26T06:20:41.074Z,9.39
2019-01-26T06:21:12.346Z,9.46
2019-01-26T06:21:44.725Z,9.51
2019-01-26T06:22:16.039Z,9.57
2019-01-26T06:22:47.402Z,9.49
2019-01-26T06:23:18.642Z,9.56
2019-01-26T06:23:50.031Z,9.67
2019-01-26T06:24:21.314Z,9.73
2019-01-26T06:24:52.593Z,9.77
2019-01-26T06:25:23.933Z,9.82
2019-01-26T06:25:55.310Z,9.89
2019-01-26T06:26:26.660Z,9.90
2019-01-26T06:26:58.894Z,9.85
2019-01-26T06:27:30.303Z,9.84
2019-01-26T06:28:01.702Z,9.90
2019-01-26T06:28:33.084Z,9.89
2019-01-26T06:29:04.494Z,9.88
2019-01-26T06:29:35.819Z,9.85
2019-01-26T06:30:07.319Z,9.86
2019-01-26T06:30:38.704Z,9.90
2019-01-26T06:31:10.343Z,9.90
2019-01-26T06:31:41.711Z,9.91
2019-01-26T06:32:13.090Z,9.95
2019-01-26T06:32:44.496Z,9.91
2019-01-26T06:33:15.946Z,9.85
2019-01-26T06:33:47.640Z,9.78
2019-01-26T06:34:18.952Z,9.76
2019-01-26T06:34:50.288Z,9.75
2019-01-26T06:35:21.616Z,9.71
2019-01-26T06:35:52.962Z,9.70
2019-01-26T06:36:24.340Z,9.69
2019-01-26T06:36:55.626Z,9.64
2019-01-26T06:37:26.912Z,9.65
2019-01-26T06:37:58.672Z,9.65
2019-01-26T06:38:30.030Z,9.63
2019-01-26T06:39:01.498Z,9.63
2019-01-26T06:39:32.959Z,9.64
2019-01-26T06:40:04.401Z,9.64
2019-01-26T06:40:35.707Z,9.63
2019-01-26T06:41:07.146Z,9.61
2019-01-26T06:41:38.608Z,9.50
2019-01-26T06:42:10.017Z,9.49
2019-01-26T06:42:41.429Z,9.48
2019-01-26T06:43:12.889Z,9.49
2019-01-26T06:43:44.295Z,9.44
2019-01-26T06:44:15.749Z,8.09
2019-01-26T06:44:47.129Z,9.49
2019-01-26T06:45:18.463Z,9.48
2019-01-26T06:45:49.878Z,9.42
2019-01-26T06:46:21.172Z,9.45
2019-01-26T06:46:52.509Z,9.42
2019-01-26T06:47:23.816Z,9.38
2019-01-26T06:48:01.910Z,9.40
2019-01-26T06:48:28.230Z,9.36
2019-01-26T06:49:00.625Z,9.42
2019-01-26T06:49:31.938Z,9.39
2019-01-26T06:50:03.755Z,9.35
2019-01-26T06:50:35.196Z,9.29
2019-01-26T06:51:06.642Z,9.29
2019-01-26T06:51:37.928Z,9.26
2019-01-26T06:52:09.356Z,9.23
2019-01-26T06:52:40.665Z,9.19
2019-01-26T06:53:12.075Z,9.14
2019-01-26T06:53:43.506Z,9.05
2019-01-26T06:54:14.834Z,9.03
2019-01-26T06:54:46.108Z,9.05
2019-01-26T06:55:17.391Z,9.08
2019-01-26T06:55:48.739Z,9.13
2019-01-26T06:56:20.023Z,9.17